createdAt,value
2018-03-08T00:01:16.654Z,84.10
2018-03-08T00:03:44.938Z,76.10
2018-03-08T00:06:13.176Z,83.93
2018-03-08T00:08:40.664Z,78.53
2018-03-08T00:11:08.938Z,68.40
2018-03-08T00:13:37.176Z,73.23
2018-03-08T00:16:04.648Z,72.77
2018-03-08T00:18:32.144Z,79.30
2018-03-08T00:21:00.385Z,71.57
2018-03-08T00:23:27.861Z,75.10
2018-03-08T00:25:55.360Z,78.60
2018-03-08T00:28:22.836Z,80.30
2018-03-08T00:30:50.306Z,81.23
2018-03-08T00:33:17.785Z,73.40
2018-03-08T00:35:46.026Z,70.93
2018-03-08T00:38:13.492Z,64.83
2018-03-08T00:40:40.985Z,68.90
2018-03-08T00:43:08.552Z,69.20
2018-03-08T00:45:36.793Z,68.90
2018-03-08T00:48:04.285Z,64.03
2018-03-08T00:50:31.758Z,71.67
2018-03-08T00:53:00.001Z,67.07
2018-03-08T00:55:27.493Z,66.87
2018-03-08T00:57:55.732Z,64.67
2018-03-08T01:00:25.010Z,57.80
2018-03-08T01:02:52.506Z,57.77
2018-03-08T01:05:19.977Z,55.23
2018-03-08T01:07:48.229Z,65.17
2018-03-08T01:10:15.719Z,75.20
2018-03-08T01:12:44.004Z,57.90
2018-03-08T01:15:12.290Z,55.17
2018-03-08T01:17:39.784Z,62.73
2018-03-08T01:20:07.256Z,52.87
2018-03-08T01:22:34.727Z,57.47
2018-03-08T01:25:02.226Z,54.83
2018-03-08T01:27:29.760Z,55.27
2018-03-08T01:29:58.019Z,49.23
2018-03-08T01:32:25.492Z,59.13
2018-03-08T01:34:52.960Z,51.77
2018-03-08T01:37:21.276Z,58.27
2018-03-08T01:39:48.749Z,49.27
2018-03-08T01:42:16.253Z,51.90
2018-03-08T01:44:44.508Z,49.97
2018-03-08T01:47:11.996Z,50.07
2018-03-08T01:49:40.281Z,44.07
2018-03-08T01:52:11.356Z,45.40
2018-03-08T01:54:38.836Z,40.03
2018-03-08T01:57:06.333Z,43.60
2018-03-08T01:59:34.601Z,35.67
2018-03-08T02:02:02.073Z,32.43
2018-03-08T02:04:30.333Z,36.63
2018-03-08T02:06:57.802Z,42.90
2018-03-08T02:09:26.060Z,35.33
2018-03-08T02:11:53.532Z,44.97
2018-03-08T02:14:21.002Z,36.17
2018-03-08T02:16:49.249Z,37.20
2018-03-08T02:19:16.720Z,37.43
2018-03-08T02:21:44.212Z,38.47
2018-03-08T02:24:11.684Z,35.80
2018-03-08T02:26:39.154Z,35.53
2018-03-08T02:29:06.674Z,43.47
2018-03-08T02:31:35.302Z,38.60
2018-03-08T02:34:03.039Z,39.37
2018-03-08T02:36:30.712Z,33.53
2018-03-08T02:38:58.340Z,31.40
2018-03-08T02:41:26.608Z,35.70
2018-03-08T02:43:54.083Z,35.00
2018-03-08T02:46:22.321Z,33.43
2018-03-08T02:48:49.842Z,36.63
2018-03-08T02:51:17.318Z,35.83
2018-03-08T02:53:44.794Z,28.67
2018-03-08T02:56:12.324Z,42.40
2018-03-08T02:58:39.805Z,31.13
2018-03-08T03:01:07.299Z,30.10
2018-03-08T03:03:34.927Z,31.03
2018-03-08T03:06:03.298Z,30.50
2018-03-08T03:08:31.196Z,29.00
2018-03-08T03:10:58.668Z,28.57
2018-03-08T03:13:26.136Z,28.20
2018-03-08T03:15:54.422Z,24.33
2018-03-08T03:18:22.661Z,31.73
2018-03-08T03:20:50.133Z,24.60
2018-03-08T03:23:17.640Z,32.30
2018-03-08T03:25:45.165Z,35.77
2018-03-08T03:28:13.411Z,33.43
2018-03-08T03:30:40.901Z,26.33
2018-03-08T03:33:09.145Z,34.07
2018-03-08T03:35:36.618Z,26.57
2018-03-08T03:38:04.144Z,31.57
2018-03-08T03:40:31.621Z,29.80
2018-03-08T03:42:59.094Z,26.57
2018-03-08T03:45:26.588Z,22.13
2018-03-08T03:47:54.831Z,26.33
2018-03-08T03:50:22.309Z,26.13
2018-03-08T03:52:50.572Z,27.43
2018-03-08T03:55:18.151Z,21.73
2018-03-08T03:57:46.393Z,26.73
2018-03-08T04:00:13.893Z,29.17
2018-03-08T04:02:42.128Z,31.63
2018-03-08T04:05:09.605Z,28.83
2018-03-08T04:07:37.110Z,23.57
2018-03-08T04:10:04.581Z,24.53
2018-03-08T04:12:32.056Z,22.80
2018-03-08T04:14:59.561Z,26.73
2018-03-08T04:17:27.802Z,25.63
2018-03-08T04:19:55.273Z,28.53
2018-03-08T04:22:22.780Z,24.73
2018-03-08T04:24:51.000Z,28.07
2018-03-08T04:27:18.483Z,24.97
2018-03-08T04:29:46.726Z,24.20
2018-03-08T04:32:14.226Z,26.30
2018-03-08T04:34:42.465Z,26.30
2018-03-08T04:37:09.938Z,24.43
2018-03-08T04:39:37.469Z,20.73
2018-03-08T04:42:04.927Z,26.37
2018-03-08T04:44:32.408Z,22.13
2018-03-08T04:47:01.544Z,25.63
2018-03-08T04:49:29.785Z,29.43
2018-03-08T04:51:57.281Z,23.90
2018-03-08T04:54:24.754Z,23.87
2018-03-08T04:56:52.228Z,28.83
2018-03-08T04:59:19.742Z,18.00
2018-03-08T05:01:47.987Z,21.33
2018-03-08T05:04:15.465Z,27.00
2018-03-08T05:06:43.035Z,23.50
2018-03-08T05:09:11.283Z,25.00
2018-03-08T05:11:38.751Z,24.67
2018-03-08T05:14:07.008Z,27.53
2018-03-08T05:16:34.484Z,20.20
2018-03-08T05:19:01.961Z,20.30
2018-03-08T05:21:29.445Z,27.27
2018-03-08T05:23:56.921Z,21.80
2018-03-08T05:26:24.412Z,19.93
2018-03-08T05:28:51.885Z,20.90
2018-03-08T05:31:20.126Z,24.03
2018-03-08T05:33:47.632Z,19.33
2018-03-08T05:36:15.453Z,20.00
2018-03-08T05:38:42.928Z,19.70
2018-03-08T05:41:10.421Z,21.53
2018-03-08T05:43:38.667Z,26.73
2018-03-08T05:46:06.136Z,17.73
2018-03-08T05:48:34.389Z,25.87
2018-03-08T05:51:01.865Z,17.43
2018-03-08T05:53:29.354Z,21.80
2018-03-08T05:55:57.610Z,19.93
2018-03-08T05:58:25.083Z,28.40
2018-03-08T06:00:53.357Z,32.70
2018-03-08T06:03:20.838Z,22.40
2018-03-08T06:05:49.096Z,18.97
2018-03-08T06:08:16.660Z,20.30
2018-03-08T06:10:44.900Z,18.00
2018-03-08T06:13:12.396Z,27.90
2018-03-08T06:15:40.637Z,20.73
2018-03-08T06:18:08.113Z,16.73
2018-03-08T06:20:35.615Z,16.03
2018-03-08T06:23:03.092Z,21.53
2018-03-08T06:25:30.560Z,17.33
2018-03-08T06:27:58.061Z,20.90
2018-03-08T06:30:25.535Z,19.50
2018-03-08T06:32:53.779Z,16.60
2018-03-08T06:35:21.272Z,21.33
2018-03-08T06:37:49.517Z,17.70
2018-03-08T06:40:18.493Z,22.73
2018-03-08T06:42:45.990Z,17.40
2018-03-08T06:45:14.228Z,16.10
2018-03-08T06:47:41.697Z,16.30
2018-03-08T06:50:09.194Z,21.50
2018-03-08T06:52:37.433Z,20.27
2018-03-08T06:55:04.910Z,13.80
2018-03-08T06:57:32.410Z,21.33
2018-03-08T06:59:59.889Z,23.07
2018-03-08T07:02:27.360Z,24.90
2018-03-08T07:04:54.854Z,16.80
2018-03-08T07:07:23.092Z,16.40
2018-03-08T07:09:50.598Z,18.63
2018-03-08T07:12:18.837Z,22.03
2018-03-08T07:14:46.306Z,22.33
2018-03-08T07:17:14.565Z,17.33
2018-03-08T07:19:42.042Z,20.97
2018-03-08T07:22:09.519Z,21.30
2018-03-08T07:24:37.782Z,21.40
2018-03-08T07:27:06.789Z,21.97
2018-03-08T07:29:35.049Z,25.03
2018-03-08T07:32:02.564Z,23.23
2018-03-08T07:34:30.049Z,16.03
2018-03-08T07:36:57.520Z,20.63
2018-03-08T07:39:25.014Z,21.00
2018-03-08T07:41:53.270Z,37.00
2018-03-08T07:44:20.749Z,32.50
2018-03-08T07:46:49.013Z,33.37
2018-03-08T07:49:17.260Z,23.20
2018-03-08T07:51:44.736Z,26.97
2018-03-08T07:54:12.236Z,28.27
2018-03-08T07:56:39.709Z,28.53
2018-03-08T07:59:07.205Z,33.73
2018-03-08T08:01:34.679Z,28.83
2018-03-08T08:04:02.936Z,29.23
2018-03-08T08:06:42.304Z,43.43
2018-03-08T08:09:10.574Z,39.50
2018-03-08T08:11:38.074Z,35.83
2018-03-08T08:14:05.564Z,38.80
2018-03-08T08:16:33.051Z,38.10
2018-03-08T08:19:01.320Z,38.53
2018-03-08T08:21:28.798Z,36.37
2018-03-08T08:23:57.034Z,44.10
2018-03-08T08:26:24.524Z,48.60
2018-03-08T08:28:52.802Z,43.50
2018-03-08T08:31:21.044Z,46.30
2018-03-08T08:33:48.542Z,44.90
2018-03-08T08:36:16.786Z,45.77
2018-03-08T08:38:44.259Z,45.50
2018-03-08T08:41:11.757Z,49.67
2018-03-08T08:43:39.237Z,58.00
2018-03-08T08:46:06.714Z,65.93
2018-03-08T08:48:34.209Z,69.07
2018-03-08T08:51:02.453Z,55.73
2018-03-08T08:53:29.950Z,76.27
2018-03-08T08:55:58.189Z,67.67
2018-03-08T08:58:25.681Z,70.20
2018-03-08T09:00:53.941Z,63.63
2018-03-08T09:03:22.916Z,76.83
2018-03-08T09:05:50.392Z,63.40
2018-03-08T09:08:17.889Z,65.67
2018-03-08T09:10:45.365Z,73.13
2018-03-08T09:13:12.856Z,66.40
2018-03-08T09:15:40.352Z,73.23
2018-03-08T09:18:08.625Z,68.73
2018-03-08T09:20:36.860Z,69.03
2018-03-08T09:23:04.353Z,71.07
2018-03-08T09:25:31.835Z,66.80
2018-03-08T09:28:00.077Z,71.30
2018-03-08T09:30:27.579Z,65.13
2018-03-08T09:32:55.110Z,68.80
2018-03-08T09:35:22.581Z,66.03
2018-03-08T09:37:50.839Z,74.60
2018-03-08T09:40:18.411Z,58.97
2018-03-08T09:42:46.648Z,58.20
2018-03-08T09:45:14.140Z,57.17
2018-03-08T09:47:42.384Z,62.47
2018-03-08T09:50:09.871Z,63.20
2018-03-08T09:52:38.143Z,74.33
2018-03-08T09:55:05.626Z,58.90
2018-03-08T09:57:33.865Z,58.63
2018-03-08T10:00:01.370Z,64.53
2018-03-08T10:02:29.613Z,80.37
2018-03-08T10:04:57.197Z,50.63
2018-03-08T10:07:25.468Z,54.10
2018-03-08T10:09:53.713Z,61.20
2018-03-08T10:12:21.196Z,56.80
2018-03-08T10:14:48.699Z,54.00
2018-03-08T10:17:16.181Z,52.93
2018-03-08T10:19:43.652Z,63.43
2018-03-08T10:22:11.154Z,61.63
2018-03-08T10:24:45.346Z,56.47
2018-03-08T10:27:12.847Z,52.77
2018-03-08T10:29:40.329Z,53.17
2018-03-08T10:32:07.806Z,55.43
2018-03-08T10:34:35.305Z,50.77
2018-03-08T10:37:03.569Z,57.03
2018-03-08T10:39:31.808Z,51.73
2018-03-08T10:41:59.308Z,53.93
2018-03-08T10:44:27.552Z,54.77
2018-03-08T10:46:55.026Z,65.33
2018-03-08T10:49:22.525Z,59.37
2018-03-08T10:51:50.005Z,55.83
2018-03-08T10:54:17.509Z,59.77
2018-03-08T10:56:44.985Z,59.93
2018-03-08T10:59:13.224Z,51.93
2018-03-08T11:01:43.573Z,54.80
2018-03-08T11:04:14.891Z,50.77
2018-03-08T11:06:42.371Z,51.10
2018-03-08T11:09:09.965Z,53.73
2018-03-08T11:11:37.454Z,48.90
2018-03-08T11:14:04.936Z,53.60
2018-03-08T11:16:32.445Z,48.87
2018-03-08T11:18:59.981Z,45.07
2018-03-08T11:21:28.224Z,47.40
2018-03-08T11:23:55.812Z,43.87
2018-03-08T11:26:23.285Z,40.17
2018-03-08T11:28:51.554Z,47.40
2018-03-08T11:31:19.833Z,55.63
2018-03-08T11:33:48.112Z,50.93
2018-03-08T11:36:16.357Z,53.97
2018-03-08T11:38:43.854Z,41.73
2018-03-08T11:41:12.096Z,50.60
2018-03-08T11:43:39.580Z,50.57
2018-03-08T11:46:07.842Z,46.23
2018-03-08T11:48:35.321Z,45.87
2018-03-08T11:51:03.561Z,46.73
2018-03-08T11:53:31.060Z,44.07
2018-03-08T11:55:59.312Z,55.40
2018-03-08T11:58:26.796Z,42.43
2018-03-08T12:00:55.208Z,44.33
2018-03-08T12:03:22.680Z,44.97
2018-03-08T12:05:50.214Z,43.80
2018-03-08T12:08:17.660Z,42.37
2018-03-08T12:10:45.906Z,48.50
2018-03-08T12:13:13.405Z,46.00
2018-03-08T12:15:40.880Z,50.53
2018-03-08T12:18:08.364Z,41.60
2018-03-08T12:20:35.901Z,50.93
2018-03-08T12:23:03.440Z,40.57
2018-03-08T12:25:30.997Z,45.40
2018-03-08T12:27:59.357Z,49.23
2018-03-08T12:30:26.881Z,45.20
2018-03-08T12:32:54.437Z,53.43
2018-03-08T12:35:22.061Z,42.83
2018-03-08T12:37:49.597Z,44.83
2018-03-08T12:40:17.076Z,38.17
2018-03-08T12:42:45.344Z,43.57
2018-03-08T12:45:13.584Z,52.00
2018-03-08T12:47:41.081Z,48.90
2018-03-08T12:50:09.353Z,42.70
2018-03-08T12:52:37.593Z,43.33
2018-03-08T12:55:05.074Z,46.83
2018-03-08T12:57:32.589Z,34.77
2018-03-08T13:00:00.075Z,41.10
2018-03-08T13:02:27.557Z,33.97
2018-03-08T13:04:55.048Z,42.47
2018-03-08T13:07:22.529Z,43.03
2018-03-08T13:09:50.001Z,45.20
2018-03-08T13:12:17.497Z,43.60
2018-03-08T13:14:45.745Z,35.80
2018-03-08T13:17:13.258Z,38.37
2018-03-08T13:19:40.733Z,37.83
2018-03-08T13:22:08.213Z,37.90
2018-03-08T13:24:35.689Z,39.53
2018-03-08T13:27:03.184Z,35.97
2018-03-08T13:29:31.425Z,37.77
2018-03-08T13:31:58.907Z,46.20
2018-03-08T13:34:27.172Z,38.23
2018-03-08T13:36:54.648Z,41.43
2018-03-08T13:39:22.896Z,41.60
2018-03-08T13:41:50.393Z,39.90
2018-03-08T13:44:18.637Z,40.70
2018-03-08T13:46:46.930Z,34.60
2018-03-08T13:49:27.166Z,33.50
2018-03-08T13:51:54.652Z,34.17
2018-03-08T13:54:22.908Z,32.33
2018-03-08T13:56:50.496Z,39.30
2018-03-08T13:59:18.753Z,37.97
2018-03-08T14:01:46.228Z,32.30
2018-03-08T14:04:14.497Z,37.77
2018-03-08T14:06:42.781Z,25.50
2018-03-08T14:09:11.026Z,33.07
2018-03-08T14:11:38.528Z,31.50
2018-03-08T14:14:06.767Z,32.03
2018-03-08T14:16:34.273Z,35.60
2018-03-08T14:19:01.753Z,30.60
2018-03-08T14:21:29.369Z,90.13
2018-03-08T14:23:57.629Z,345.43
2018-03-08T14:26:25.117Z,257.50
2018-03-08T14:28:53.389Z,42.63
2018-03-08T14:31:21.661Z,128.73
2018-03-08T14:33:49.958Z,102.10
2018-03-08T14:36:17.416Z,35.67
2018-03-08T14:38:44.900Z,34.23
2018-03-08T14:41:12.373Z,64.13
2018-03-08T14:43:39.867Z,47.70
2018-03-08T14:46:07.364Z,49.03
2018-03-08T14:48:34.841Z,24.13
2018-03-08T14:51:02.345Z,24.03
2018-03-08T14:53:30.593Z,28.97
2018-03-08T14:55:58.078Z,367.23
2018-03-08T14:58:25.581Z,259.47
2018-03-08T15:00:53.062Z,26.10
2018-03-08T15:03:20.545Z,13.83
2018-03-08T15:05:48.041Z,16.80
2018-03-08T15:08:15.516Z,18.40
2018-03-08T15:10:43.037Z,30.43
2018-03-08T15:13:11.305Z,31.30
2018-03-08T15:15:38.786Z,32.43
2018-03-08T15:18:07.027Z,27.77
2018-03-08T15:20:34.529Z,22.43
2018-03-08T15:23:02.009Z,17.67
2018-03-08T15:25:29.485Z,22.63
2018-03-08T15:27:56.984Z,15.30
2018-03-08T15:30:25.264Z,20.80
2018-03-08T15:32:53.506Z,19.90
2018-03-08T15:35:21.004Z,28.10
2018-03-08T15:37:49.251Z,24.67
2018-03-08T15:40:16.729Z,6.43
2018-03-08T15:42:45.012Z,10.60
2018-03-08T15:45:13.248Z,5.47
2018-03-08T15:47:40.745Z,6.97
2018-03-08T15:50:09.028Z,10.30
2018-03-08T15:52:37.267Z,5.17
2018-03-08T15:55:04.759Z,12.43
2018-03-08T15:57:33.001Z,14.50
2018-03-08T16:00:00.493Z,58.53
2018-03-08T16:02:28.777Z,19.93
2018-03-08T16:04:57.017Z,38.83
2018-03-08T16:07:36.493Z,25.50
2018-03-08T16:10:35.239Z,55.87
2018-03-08T16:13:02.749Z,36.27
2018-03-08T16:15:31.022Z,9.90
2018-03-08T16:17:59.304Z,12.87
2018-03-08T16:20:27.584Z,25.30
2018-03-08T16:22:55.827Z,13.93
2018-03-08T16:25:23.304Z,15.00
2018-03-08T16:27:51.585Z,11.67
2018-03-08T16:30:19.825Z,11.30
2018-03-08T16:32:47.324Z,5.63
2018-03-08T16:35:15.604Z,11.50
2018-03-08T16:37:43.838Z,6.30
2018-03-08T16:40:11.313Z,10.20
2018-03-08T16:42:38.792Z,8.57
2018-03-08T16:45:07.032Z,6.53
2018-03-08T16:47:34.523Z,8.43
2018-03-08T16:50:01.988Z,5.10
2018-03-08T16:52:30.228Z,3.83
2018-03-08T16:54:57.730Z,4.90
2018-03-08T16:57:25.987Z,14.80
2018-03-08T16:59:53.460Z,4.00
2018-03-08T17:02:21.730Z,11.07
2018-03-08T17:04:49.299Z,7.97
2018-03-08T17:07:17.586Z,4.53
2018-03-08T17:09:45.884Z,15.63
2018-03-08T17:12:13.361Z,10.03
2018-03-08T17:14:41.013Z,20.23
2018-03-08T17:17:09.314Z,9.80
2018-03-08T17:19:36.757Z,13.80
2018-03-08T17:22:04.220Z,8.57
2018-03-08T17:24:31.741Z,21.23
2018-03-08T17:27:00.620Z,15.43
2018-03-08T17:29:28.876Z,16.50
2018-03-08T17:31:58.039Z,25.77
2018-03-08T17:34:25.548Z,23.13
2018-03-08T17:36:53.126Z,27.87
2018-03-08T17:39:21.444Z,21.97
2018-03-08T17:41:48.943Z,23.63
2018-03-08T17:44:16.430Z,23.67
2018-03-08T17:46:44.717Z,32.00
2018-03-08T17:49:12.233Z,25.00
2018-03-08T17:51:39.736Z,39.00
2018-03-08T17:54:07.221Z,27.03
2018-03-08T17:56:34.698Z,17.07
2018-03-08T17:59:02.232Z,13.60
2018-03-08T18:01:29.705Z,9.57
2018-03-08T18:03:57.185Z,7.60
2018-03-08T18:06:24.786Z,9.37
2018-03-08T18:08:52.341Z,7.70
2018-03-08T18:11:20.712Z,10.13
2018-03-08T18:13:48.971Z,13.10
2018-03-08T18:16:16.448Z,11.37
2018-03-08T18:18:44.712Z,15.50
2018-03-08T18:21:12.233Z,12.70
2018-03-08T18:23:39.707Z,19.97
2018-03-08T18:26:07.255Z,19.93
2018-03-08T18:28:34.880Z,15.13
2018-03-08T18:31:02.428Z,9.63
2018-03-08T18:33:30.836Z,8.73
2018-03-08T18:35:58.505Z,9.40
2018-03-08T18:38:26.020Z,10.80
2018-03-08T18:40:54.408Z,8.27
2018-03-08T18:43:22.800Z,13.50
2018-03-08T18:45:50.346Z,15.90
2018-03-08T18:48:17.876Z,19.80
2018-03-08T18:50:45.405Z,15.63
2018-03-08T18:53:12.886Z,15.60
2018-03-08T18:55:40.383Z,12.17
2018-03-08T18:58:25.154Z,11.10
2018-03-08T19:00:53.453Z,13.00
2018-03-08T19:03:20.943Z,9.83
2018-03-08T19:05:48.887Z,11.07
2018-03-08T19:08:16.443Z,14.60
2018-03-08T19:10:44.801Z,15.30
2018-03-08T19:13:13.194Z,12.20
2018-03-08T19:15:40.707Z,14.97
2018-03-08T19:18:08.197Z,17.27
2018-03-08T19:20:36.442Z,14.30
2018-03-08T19:23:03.939Z,10.77
2018-03-08T19:25:31.552Z,14.00
2018-03-08T19:27:59.184Z,11.60
2018-03-08T19:30:26.761Z,15.50
2018-03-08T19:32:54.271Z,16.40
2018-03-08T19:35:22.587Z,15.10
2018-03-08T19:37:50.070Z,16.33
2018-03-08T19:40:17.565Z,17.87
2018-03-08T19:42:45.822Z,15.70
2018-03-08T19:45:13.449Z,14.63
2018-03-08T19:47:40.861Z,9.30
2018-03-08T19:50:09.152Z,12.40
2018-03-08T19:52:36.619Z,42.77
2018-03-08T19:55:04.124Z,9.57
2018-03-08T19:57:33.137Z,20.20
2018-03-08T20:00:00.630Z,7.93
2018-03-08T20:02:28.287Z,9.50
2018-03-08T20:04:55.824Z,26.93
2018-03-08T20:07:23.340Z,11.13
2018-03-08T20:09:50.887Z,11.90
2018-03-08T20:12:18.450Z,38.80
2018-03-08T20:14:45.952Z,18.57
2018-03-08T20:17:13.460Z,13.87
2018-03-08T20:19:40.976Z,42.03
2018-03-08T20:22:08.615Z,25.90
2018-03-08T20:24:36.101Z,27.47
2018-03-08T20:27:03.692Z,16.20
2018-03-08T20:29:31.236Z,16.07
2018-03-08T20:31:59.776Z,11.30
2018-03-08T20:34:27.310Z,19.90
2018-03-08T20:36:54.847Z,12.00
2018-03-08T20:39:23.178Z,29.63
2018-03-08T20:41:50.657Z,15.53
2018-03-08T20:44:18.171Z,14.73
2018-03-08T20:46:45.660Z,13.33
2018-03-08T20:49:13.311Z,14.47
2018-03-08T20:51:40.813Z,6.70
2018-03-08T20:54:09.096Z,15.23
2018-03-08T20:56:37.337Z,9.57
2018-03-08T20:59:04.877Z,18.30
2018-03-08T21:01:32.532Z,11.03
2018-03-08T21:04:00.114Z,20.13
2018-03-08T21:06:27.861Z,8.50
2018-03-08T21:08:57.040Z,54.90
2018-03-08T21:11:24.521Z,62.23
2018-03-08T21:13:52.044Z,24.60
2018-03-08T21:16:20.384Z,52.40
2018-03-08T21:18:47.876Z,17.40
2018-03-08T21:21:16.252Z,14.03
2018-03-08T21:23:43.766Z,12.27
2018-03-08T21:26:11.397Z,16.37
2018-03-08T21:28:38.877Z,9.53
2018-03-08T21:31:06.535Z,10.70
2018-03-08T21:33:34.061Z,14.20
2018-03-08T21:36:01.700Z,16.13
2018-03-08T21:38:29.401Z,10.67
2018-03-08T21:40:57.181Z,14.23
2018-03-08T21:43:24.952Z,10.03
2018-03-08T21:45:52.476Z,49.63
2018-03-08T21:48:20.727Z,19.87
2018-03-08T21:50:48.345Z,31.97
2018-03-08T21:53:16.017Z,48.97
2018-03-08T21:55:44.576Z,22.93
2018-03-08T21:58:12.227Z,36.80
2018-03-08T22:00:40.496Z,26.50
2018-03-08T22:03:08.154Z,20.97
2018-03-08T22:05:35.795Z,18.10
2018-03-08T22:08:03.283Z,10.63
2018-03-08T22:10:31.557Z,13.60
2018-03-08T22:12:59.032Z,9.23
2018-03-08T22:15:27.295Z,25.00
2018-03-08T22:17:55.605Z,10.93
2018-03-08T22:20:23.097Z,12.90
2018-03-08T22:22:50.592Z,13.90
2018-03-08T22:25:18.864Z,8.67
2018-03-08T22:27:46.341Z,10.83
2018-03-08T22:30:14.601Z,8.57
2018-03-08T22:32:42.851Z,11.73
2018-03-08T22:35:10.332Z,10.10
2018-03-08T22:37:37.824Z,8.80
2018-03-08T22:40:05.364Z,12.43
2018-03-08T22:42:33.609Z,10.00
2018-03-08T22:45:01.101Z,8.33
2018-03-08T22:47:29.348Z,9.50
2018-03-08T22:49:56.820Z,6.77
2018-03-08T22:52:24.309Z,12.43
2018-03-08T22:54:51.793Z,4.37
2018-03-08T22:57:19.260Z,8.93
2018-03-08T22:59:46.752Z,7.83
2018-03-08T23:02:14.324Z,11.03
2018-03-08T23:04:42.570Z,12.43
2018-03-08T23:07:10.060Z,11.10
2018-03-08T23:09:37.523Z,9.47
2018-03-08T23:12:05.762Z,22.50
2018-03-08T23:14:33.268Z,11.73
2018-03-08T23:17:01.512Z,17.53
2018-03-08T23:19:28.980Z,6.60
2018-03-08T23:21:56.478Z,8.17
2018-03-08T23:24:23.948Z,7.00
2018-03-08T23:26:51.417Z,15.10
2018-03-08T23:29:18.907Z,7.37
2018-03-08T23:31:46.374Z,9.07
2018-03-08T23:34:13.847Z,7.70
2018-03-08T23:36:42.100Z,12.10
2018-03-08T23:39:09.561Z,6.93
2018-03-08T23:41:37.037Z,11.17
2018-03-08T23:44:05.280Z,7.00
2018-03-08T23:46:32.761Z,10.93
2018-03-08T23:49:00.257Z,10.90
2018-03-08T23:51:27.729Z,7.00
2018-03-08T23:53:55.264Z,8.10
2018-03-08T23:56:23.523Z,6.57
2018-03-08T23:58:50.992Z,7.57
